Time;durP1;ratioP1;P1;durP2;ratioP2;P2;SDS_P1;SDS_P2;PMS_P1;PMS_P2;Temp;Humidity;BMP_temperature;BMP_pressure;BME280_temperature;BME280_humidity;BME280_pressure;Samples;Min_cycle;Max_cycle;Signal;HPM_P1;HPM_P2
2022/12/05 00:01:22;;;;;;;62.33;27.43;;;4.30;99.90;;;;;;5055173;28;20235;-68
2022/12/05 00:03:51;;;;;;;73.37;30.00;;;4.40;99.90;;;;;;5057632;28;20288;-67
2022/12/05 00:06:18;;;;;;;61.77;27.33;;;4.30;99.90;;;;;;5060359;28;20250;-67
2022/12/05 00:08:46;;;;;;;68.37;28.97;;;4.30;99.90;;;;;;5059017;28;20297;-67
2022/12/05 00:11:15;;;;;;;68.90;30.13;;;4.30;99.90;;;;;;5062537;28;20204;-69
2022/12/05 00:13:43;;;;;;;67.53;28.17;;;4.40;99.90;;;;;;5056245;28;20295;-68
2022/12/05 00:16:13;;;;;;;65.50;28.90;;;4.40;99.90;;;;;;5060946;28;20289;-68
2022/12/05 00:18:40;;;;;;;70.60;30.10;;;4.40;99.90;;;;;;5054770;28;20214;-70
2022/12/05 00:21:12;;;;;;;68.23;28.63;;;4.40;99.90;;;;;;5059810;28;20235;-67
2022/12/05 00:23:38;;;;;;;69.27;30.07;;;4.40;99.90;;;;;;5056090;28;20232;-68
2022/12/05 00:26:06;;;;;;;77.80;29.33;;;4.40;99.90;;;;;;5054284;28;20230;-68
2022/12/05 00:28:33;;;;;;;63.90;28.03;;;4.40;99.90;;;;;;5060503;28;20209;-68
2022/12/05 00:31:05;;;;;;;69.97;30.13;;;4.40;99.90;;;;;;5056817;28;20204;-68
2022/12/05 00:33:32;;;;;;;65.23;29.40;;;4.40;99.90;;;;;;5046192;28;20242;-68
2022/12/05 00:36:08;;;;;;;76.70;30.93;;;4.40;99.90;;;;;;5061534;28;20210;-68
2022/12/05 00:38:35;;;;;;;73.87;31.07;;;4.40;99.90;;;;;;5062971;28;20242;-69
2022/12/05 00:41:07;;;;;;;76.17;29.97;;;4.40;99.90;;;;;;5062192;28;20205;-68
2022/12/05 00:43:34;;;;;;;65.50;29.70;;;4.40;99.90;;;;;;5052372;28;20303;-69
2022/12/05 00:46:04;;;;;;;73.20;32.00;;;4.50;99.90;;;;;;5047210;28;20245;-68
2022/12/05 00:48:33;;;;;;;69.67;30.37;;;4.50;99.90;;;;;;5068535;28;20227;-67
2022/12/05 00:51:06;;;;;;;70.67;30.33;;;4.50;99.90;;;;;;5061350;28;20288;-68
2022/12/05 00:53:34;;;;;;;74.50;30.07;;;4.50;99.90;;;;;;5055204;28;20208;-68
2022/12/05 00:56:07;;;;;;;76.77;32.30;;;4.50;99.90;;;;;;5060356;28;20692;-68
2022/12/05 00:58:37;;;;;;;72.27;30.70;;;4.50;99.90;;;;;;5065568;28;20201;-68
2022/12/05 01:01:09;;;;;;;73.00;30.83;;;4.50;99.90;;;;;;5059917;28;20208;-68
2022/12/05 01:03:36;;;;;;;78.37;32.53;;;4.50;99.90;;;;;;5038253;28;20576;-69
2022/12/05 01:06:04;;;;;;;74.60;32.93;;;4.50;99.90;;;;;;5061700;28;20229;-70
2022/12/05 01:08:33;;;;;;;71.97;30.20;;;4.50;99.90;;;;;;5061211;28;20217;-68
2022/12/05 01:11:00;;;;;;;75.00;31.77;;;4.50;99.90;;;;;;5064391;28;20308;-68
2022/12/05 01:13:28;;;;;;;73.47;32.20;;;4.40;99.90;;;;;;5060709;28;20299;-68
2022/12/05 01:15:55;;;;;;;68.90;31.33;;;4.40;99.90;;;;;;5061242;28;20198;-68
2022/12/05 01:18:23;;;;;;;73.03;31.53;;;4.40;99.90;;;;;;5060289;28;20236;-69
2022/12/05 01:20:50;;;;;;;78.63;31.77;;;4.40;99.90;;;;;;5065339;28;20244;-68
2022/12/05 01:23:18;;;;;;;79.93;32.07;;;4.50;99.90;;;;;;5065009;28;20211;-67
2022/12/05 01:25:47;;;;;;;79.67;31.87;;;4.40;99.90;;;;;;5060379;28;20222;-68
2022/12/05 01:28:15;;;;;;;83.03;30.90;;;4.50;99.90;;;;;;5061368;28;20303;-68
2022/12/05 01:30:47;;;;;;;82.63;31.83;;;4.40;99.90;;;;;;5064041;28;20314;-68
2022/12/05 01:33:14;;;;;;;82.60;32.10;;;4.50;99.90;;;;;;5060230;28;20581;-68
2022/12/05 01:35:41;;;;;;;76.77;32.23;;;4.40;99.90;;;;;;5046931;28;20212;-68
2022/12/05 01:38:11;;;;;;;79.80;32.23;;;4.40;99.90;;;;;;5057029;28;20676;-68
2022/12/05 01:40:38;;;;;;;70.97;30.87;;;4.50;99.90;;;;;;5059593;28;20227;-68
2022/12/05 01:43:13;;;;;;;71.53;30.17;;;4.40;99.90;;;;;;5060912;28;20255;-68
2022/12/05 01:45:42;;;;;;;81.93;31.67;;;4.40;99.90;;;;;;5061095;28;22168;-68
2022/12/05 01:48:27;;;;;;;73.97;30.47;;;4.50;99.90;;;;;;5058668;28;20201;-68
2022/12/05 01:50:54;;;;;;;75.20;32.13;;;4.50;99.90;;;;;;5058160;28;20204;-68
2022/12/05 01:53:21;;;;;;;72.30;30.03;;;4.50;99.90;;;;;;5058230;28;20587;-68
2022/12/05 01:55:49;;;;;;;77.73;29.03;;;4.50;99.90;;;;;;5063861;28;20755;-67
2022/12/05 01:58:18;;;;;;;66.83;29.60;;;4.50;99.90;;;;;;5055713;28;20228;-68
2022/12/05 02:00:45;;;;;;;71.20;28.53;;;4.50;99.90;;;;;;5040146;28;20258;-68
2022/12/05 02:03:18;;;;;;;73.13;30.00;;;4.50;99.90;;;;;;5062200;28;20208;-67
2022/12/05 02:05:49;;;;;;;66.97;28.87;;;4.50;99.90;;;;;;5060235;28;20542;-67
2022/12/05 02:08:16;;;;;;;69.03;29.80;;;4.50;99.90;;;;;;5058809;28;20305;-67
2022/12/05 02:10:49;;;;;;;73.23;29.57;;;4.50;99.90;;;;;;5060847;28;20240;-68
2022/12/05 02:13:22;;;;;;;73.70;29.40;;;4.50;99.90;;;;;;5062637;28;20713;-67
2022/12/05 02:16:04;;;;;;;76.20;29.73;;;4.50;99.90;;;;;;5062899;28;20649;-68
2022/12/05 02:18:40;;;;;;;71.53;29.13;;;4.50;99.90;;;;;;5063735;28;20202;-68
2022/12/05 02:21:35;;;;;;;70.17;28.00;;;4.50;99.90;;;;;;5062172;28;20240;-67
2022/12/05 02:24:31;;;;;;;65.67;27.20;;;4.60;99.90;;;;;;5063604;28;20196;-68
2022/12/05 02:27:10;;;;;;;72.30;28.10;;;4.60;99.90;;;;;;5051238;28;20244;-67
2022/12/05 02:29:55;;;;;;;63.27;28.47;;;4.60;99.90;;;;;;5063093;28;20192;-68
2022/12/05 02:32:35;;;;;;;71.33;28.83;;;4.60;99.90;;;;;;5065412;28;20214;-68
2022/12/05 02:35:43;;;;;;;70.57;26.63;;;4.60;99.90;;;;;;5058869;28;20217;-69
2022/12/05 02:38:25;;;;;;;64.60;26.23;;;4.60;99.90;;;;;;5056679;28;20213;-68
2022/12/05 02:41:07;;;;;;;68.60;27.77;;;4.60;99.90;;;;;;5061323;28;20315;-67
2022/12/05 02:43:41;;;;;;;59.43;25.57;;;4.60;99.90;;;;;;5057890;28;20696;-67
2022/12/05 02:46:16;;;;;;;72.33;26.80;;;4.60;99.90;;;;;;5052604;28;20312;-67
2022/12/05 02:48:45;;;;;;;60.23;25.70;;;4.60;99.90;;;;;;5055756;28;20208;-68
2022/12/05 02:51:16;;;;;;;66.73;25.30;;;4.60;99.90;;;;;;5059398;28;20270;-68
2022/12/05 02:53:44;;;;;;;60.67;25.13;;;4.60;99.90;;;;;;5048454;28;20197;-68
2022/12/05 02:56:12;;;;;;;61.47;25.10;;;4.60;99.90;;;;;;5062634;28;20664;-67
2022/12/05 02:58:52;;;;;;;59.83;24.67;;;4.70;99.90;;;;;;5037774;28;20340;-67
2022/12/05 03:01:26;;;;;;;60.53;25.83;;;4.70;99.90;;;;;;5060315;28;20319;-68
2022/12/05 03:03:54;;;;;;;62.83;26.63;;;4.70;99.90;;;;;;5065362;28;20194;-67
2022/12/05 03:06:27;;;;;;;56.37;24.30;;;4.70;99.90;;;;;;5064183;28;20220;-68
2022/12/05 03:09:03;;;;;;;55.03;24.60;;;4.70;99.90;;;;;;5061459;28;20679;-68
2022/12/05 03:11:38;;;;;;;60.83;24.73;;;4.70;99.90;;;;;;5057218;28;20224;-66
2022/12/05 03:14:14;;;;;;;62.20;24.57;;;4.70;99.90;;;;;;5058469;28;20686;-67
2022/12/05 03:16:46;;;;;;;53.17;24.10;;;4.70;99.90;;;;;;5051504;28;20208;-68
2022/12/05 03:19:36;;;;;;;62.83;24.37;;;4.80;99.90;;;;;;5043790;28;20221;-68
2022/12/05 03:22:09;;;;;;;58.73;25.53;;;4.80;99.90;;;;;;5057162;28;20226;-69
2022/12/05 03:24:39;;;;;;;55.37;24.20;;;4.80;99.90;;;;;;5056928;28;20197;-69
2022/12/05 03:27:29;;;;;;;53.17;23.87;;;4.80;99.90;;;;;;5054811;28;20259;-68
2022/12/05 03:30:10;;;;;;;56.77;23.43;;;4.80;99.90;;;;;;5061016;28;20262;-69
2022/12/05 03:32:50;;;;;;;56.13;23.50;;;4.80;99.90;;;;;;5039691;28;20213;-67
2022/12/05 03:35:23;;;;;;;58.73;24.93;;;4.80;99.90;;;;;;5062660;28;20289;-67
2022/12/05 03:38:08;;;;;;;58.27;24.70;;;4.80;99.90;;;;;;5060898;28;20289;-67
2022/12/05 03:40:45;;;;;;;56.23;24.33;;;4.80;99.90;;;;;;5060833;28;20301;-68
2022/12/05 03:43:14;;;;;;;51.77;22.83;;;4.80;99.90;;;;;;5059638;28;20322;-67
2022/12/05 03:46:22;;;;;;;53.30;24.63;;;4.80;99.90;;;;;;5065253;28;20294;-68
2022/12/05 03:48:56;;;;;;;58.20;25.67;;;4.90;99.90;;;;;;5032291;28;20232;-67
2022/12/05 03:51:28;;;;;;;53.83;23.87;;;4.90;99.90;;;;;;5057388;28;20288;-67
2022/12/05 03:54:06;;;;;;;57.60;25.47;;;4.90;99.90;;;;;;5057779;28;20230;-70
2022/12/05 03:56:42;;;;;;;57.47;24.40;;;5.00;99.90;;;;;;5059882;28;20316;-68
2022/12/05 03:59:27;;;;;;;57.00;24.20;;;5.00;99.90;;;;;;5040760;28;20196;-67
2022/12/05 04:01:55;;;;;;;59.07;23.97;;;5.00;99.90;;;;;;5059438;28;20860;-68
2022/12/05 04:04:41;;;;;;;49.70;24.13;;;5.00;99.90;;;;;;5026549;28;20295;-67
2022/12/05 04:07:13;;;;;;;53.27;24.87;;;5.00;99.90;;;;;;5061263;28;20240;-68
2022/12/05 04:09:48;;;;;;;58.30;24.80;;;5.00;99.90;;;;;;5062672;28;20222;-67
2022/12/05 04:12:22;;;;;;;55.80;25.30;;;5.00;99.90;;;;;;5060779;28;20220;-67
2022/12/05 04:15:00;;;;;;;49.43;24.20;;;5.00;99.90;;;;;;5062281;28;20230;-66
2022/12/05 04:17:58;;;;;;;58.33;26.27;;;5.00;99.90;;;;;;5064451;28;20207;-68
2022/12/05 04:23:15;;;;;;;55.67;24.83;;;5.00;99.90;;;;;;5064897;28;20580;-67
2022/12/05 04:26:07;;;;;;;55.50;26.27;;;5.00;99.90;;;;;;5066107;28;20198;-67
2022/12/05 04:28:48;;;;;;;54.33;25.37;;;5.00;99.90;;;;;;5063496;28;20313;-68
2022/12/05 04:31:21;;;;;;;60.17;26.50;;;5.00;99.90;;;;;;5063451;28;20208;-68
2022/12/05 04:33:56;;;;;;;60.07;27.17;;;5.10;99.90;;;;;;5065836;28;20207;-68
2022/12/05 04:36:29;;;;;;;50.50;25.23;;;5.10;99.90;;;;;;5043727;28;20228;-68
2022/12/05 04:39:07;;;;;;;54.33;25.60;;;5.10;99.90;;;;;;5058731;28;20210;-69
2022/12/05 04:41:44;;;;;;;61.57;26.63;;;5.10;99.90;;;;;;5061859;28;20294;-67
2022/12/05 04:44:16;;;;;;;65.17;27.97;;;5.10;99.90;;;;;;5064870;28;20232;-67
2022/12/05 04:46:44;;;;;;;60.37;26.53;;;5.10;99.90;;;;;;5063655;28;20337;-67
2022/12/05 04:49:16;;;;;;;56.97;27.67;;;5.10;99.90;;;;;;5065453;28;20236;-67
2022/12/05 04:51:44;;;;;;;58.90;26.60;;;5.10;99.90;;;;;;5062676;28;20206;-68
2022/12/05 04:54:16;;;;;;;60.23;27.27;;;5.20;99.90;;;;;;5067063;28;20200;-67
2022/12/05 04:56:47;;;;;;;59.17;26.93;;;5.10;99.90;;;;;;5057487;28;20319;-68
2022/12/05 04:59:14;;;;;;;58.80;25.47;;;5.20;99.90;;;;;;5060460;28;20915;-68
2022/12/05 05:02:05;;;;;;;62.00;27.07;;;5.20;99.90;;;;;;5064753;28;20966;-69
2022/12/05 05:04:46;;;;;;;54.30;26.57;;;5.20;99.90;;;;;;5065905;28;20197;-69
2022/12/05 05:07:13;;;;;;;61.63;26.90;;;5.20;99.90;;;;;;5063275;28;20728;-68
2022/12/05 05:09:41;;;;;;;61.13;26.07;;;5.20;99.90;;;;;;5060976;28;20282;-67
2022/12/05 05:12:08;;;;;;;58.73;28.03;;;5.20;99.90;;;;;;5059008;28;20296;-68
2022/12/05 05:14:41;;;;;;;58.10;26.90;;;5.20;99.90;;;;;;5047321;28;20202;-69
2022/12/05 05:17:08;;;;;;;63.90;27.83;;;5.20;99.90;;;;;;5062629;28;20209;-67
2022/12/05 05:19:34;;;;;;;57.60;26.37;;;5.20;99.90;;;;;;5061742;28;20197;-68
2022/12/05 05:22:01;;;;;;;57.73;25.77;;;5.30;99.90;;;;;;5063824;28;20216;-69
2022/12/05 05:24:28;;;;;;;67.07;27.27;;;5.30;99.90;;;;;;5067780;28;20386;-67
2022/12/05 05:26:55;;;;;;;58.03;25.73;;;5.30;99.90;;;;;;5064828;28;20234;-68
2022/12/05 05:29:23;;;;;;;58.33;26.17;;;5.30;99.90;;;;;;5058013;28;20201;-67
2022/12/05 05:31:50;;;;;;;56.43;26.80;;;5.30;99.90;;;;;;5058366;28;20213;-66
2022/12/05 05:34:17;;;;;;;62.93;26.83;;;5.30;99.90;;;;;;5050212;28;20291;-67
2022/12/05 05:36:43;;;;;;;59.63;27.67;;;5.30;99.90;;;;;;5063372;28;20656;-68
2022/12/05 05:39:12;;;;;;;64.13;28.37;;;5.30;99.90;;;;;;5064169;28;20232;-69
2022/12/05 05:41:40;;;;;;;59.43;26.63;;;5.30;99.90;;;;;;5057697;28;20227;-68
2022/12/05 05:44:07;;;;;;;58.73;27.60;;;5.30;99.90;;;;;;5061279;28;20862;-67
2022/12/05 05:46:34;;;;;;;59.87;27.23;;;5.30;99.90;;;;;;5059248;28;20201;-67
2022/12/05 05:49:02;;;;;;;67.27;27.30;;;5.30;99.90;;;;;;5058988;28;20299;-68
2022/12/05 05:51:29;;;;;;;58.43;27.37;;;5.40;99.90;;;;;;5062122;28;20220;-67
2022/12/05 05:53:56;;;;;;;60.10;27.73;;;5.30;99.90;;;;;;5063059;28;20281;-66
2022/12/05 05:56:23;;;;;;;58.10;26.97;;;5.30;99.90;;;;;;5064614;28;20193;-68
2022/12/05 05:59:02;;;;;;;64.23;28.13;;;5.40;99.90;;;;;;5017913;28;20201;-68
2022/12/05 06:01:30;;;;;;;55.50;26.67;;;5.30;99.90;;;;;;5063141;28;20209;-68
2022/12/05 06:03:57;;;;;;;63.43;27.13;;;5.40;99.90;;;;;;5057774;28;20404;-69
2022/12/05 06:06:25;;;;;;;60.73;26.27;;;5.30;99.90;;;;;;5065597;28;20288;-68
2022/12/05 06:08:53;;;;;;;64.30;28.27;;;5.40;99.90;;;;;;5062715;28;21045;-68
2022/12/05 06:11:24;;;;;;;61.80;26.70;;;5.40;99.90;;;;;;5060773;28;20240;-66
2022/12/05 06:13:54;;;;;;;57.37;25.30;;;5.40;99.90;;;;;;5048319;28;20289;-68
2022/12/05 06:16:21;;;;;;;61.53;25.87;;;5.40;99.90;;;;;;5065454;28;20201;-67
2022/12/05 06:18:50;;;;;;;59.37;26.30;;;5.40;99.90;;;;;;5057136;28;20208;-67
2022/12/05 06:21:16;;;;;;;53.90;25.67;;;5.40;99.90;;;;;;5041779;28;20196;-66
2022/12/05 06:23:43;;;;;;;56.80;26.57;;;5.40;99.90;;;;;;5057961;28;20297;-68
2022/12/05 06:26:13;;;;;;;59.67;25.57;;;5.40;99.90;;;;;;5057699;28;20728;-68
2022/12/05 06:28:41;;;;;;;59.13;26.43;;;5.40;99.90;;;;;;5060100;28;20763;-68
2022/12/05 06:31:12;;;;;;;64.00;24.53;;;5.40;99.90;;;;;;5062571;28;20636;-67
2022/12/05 06:33:40;;;;;;;55.37;25.53;;;5.40;99.90;;;;;;5062489;28;20320;-68
2022/12/05 06:36:13;;;;;;;67.10;26.20;;;5.40;99.90;;;;;;5059479;28;20299;-67
2022/12/05 06:38:40;;;;;;;55.77;24.73;;;5.50;99.90;;;;;;5059339;28;20336;-67
2022/12/05 06:41:12;;;;;;;56.40;25.13;;;5.50;99.90;;;;;;5063786;28;20213;-68
2022/12/05 06:43:39;;;;;;;56.83;25.40;;;5.50;99.90;;;;;;5061805;28;20189;-66
2022/12/05 06:46:08;;;;;;;59.47;24.43;;;5.50;99.90;;;;;;5044850;28;20209;-66
2022/12/05 06:48:35;;;;;;;58.58;26.55;;;5.50;99.90;;;;;;5061570;28;20469;-67
2022/12/05 06:51:02;;;;;;;59.27;25.97;;;5.60;99.90;;;;;;5059037;28;20569;-67
2022/12/05 06:53:29;;;;;;;62.07;25.40;;;5.50;99.90;;;;;;5053687;28;20201;-67
2022/12/05 06:56:06;;;;;;;60.60;26.33;;;5.70;99.90;;;;;;5054548;28;20235;-67
2022/12/05 06:58:35;;;;;;;59.20;27.27;;;5.60;99.90;;;;;;5054329;28;20215;-68
2022/12/05 07:03:48;;;;;;;58.27;25.93;;;5.60;99.90;;;;;;5051689;28;20206;-68
2022/12/05 07:06:16;;;;;;;58.23;26.40;;;5.60;99.90;;;;;;5042754;28;20197;-66
2022/12/05 07:08:43;;;;;;;57.83;24.90;;;5.50;99.90;;;;;;5056977;28;20232;-67
2022/12/05 07:11:10;;;;;;;65.23;26.43;;;5.60;99.90;;;;;;5063251;28;20202;-68
2022/12/05 07:13:40;;;;;;;63.97;25.73;;;5.60;99.90;;;;;;5053910;28;20691;-68
2022/12/05 07:16:07;;;;;;;57.93;25.63;;;5.60;99.90;;;;;;5056459;28;20220;-69
2022/12/05 07:18:35;;;;;;;54.93;24.77;;;5.60;99.90;;;;;;5051543;28;20202;-68
2022/12/05 07:21:04;;;;;;;57.27;24.40;;;5.60;99.90;;;;;;5058357;28;20204;-67
2022/12/05 07:23:41;;;;;;;57.20;25.60;;;5.60;99.90;;;;;;5058722;28;20572;-67
2022/12/05 07:26:10;;;;;;;60.47;25.07;;;5.60;99.90;;;;;;5064195;28;20668;-68
2022/12/05 07:28:36;;;;;;;55.97;26.47;;;5.70;99.90;;;;;;5060230;28;20228;-67
2022/12/05 07:31:08;;;;;;;59.90;25.10;;;5.70;99.90;;;;;;5054019;28;20571;-67
2022/12/05 07:33:36;;;;;;;55.93;25.07;;;5.70;99.90;;;;;;5046534;28;20234;-67
2022/12/05 07:36:06;;;;;;;51.83;23.60;;;5.70;99.90;;;;;;5059118;28;20296;-67
2022/12/05 07:38:33;;;;;;;54.40;25.07;;;5.70;99.90;;;;;;5048274;28;20291;-67
2022/12/05 07:41:23;;;;;;;60.10;29.63;;;5.70;99.90;;;;;;5061360;28;20827;-67
2022/12/05 07:43:51;;;;;;;56.37;24.60;;;5.80;99.90;;;;;;5037622;28;20250;-67
2022/12/05 07:46:18;;;;;;;49.17;24.43;;;5.80;99.90;;;;;;5059847;28;20533;-68
2022/12/05 07:48:46;;;;;;;56.00;24.77;;;5.80;99.90;;;;;;5061208;28;20228;-67
2022/12/05 07:51:13;;;;;;;52.07;24.57;;;5.80;99.90;;;;;;5058788;28;20222;-67
2022/12/05 07:53:43;;;;;;;49.03;23.60;;;5.80;99.90;;;;;;5058009;28;20341;-67
2022/12/05 07:56:13;;;;;;;56.20;24.90;;;5.80;99.90;;;;;;5060071;28;20203;-70
2022/12/05 07:58:40;;;;;;;50.77;23.90;;;5.80;99.90;;;;;;5044761;28;20296;-69
2022/12/05 08:01:15;;;;;;;54.33;24.27;;;5.90;99.90;;;;;;5043755;28;20210;-67
2022/12/05 08:03:43;;;;;;;56.67;24.23;;;5.90;99.90;;;;;;5059493;28;20229;-67
2022/12/05 08:06:15;;;;;;;50.53;24.47;;;6.10;99.90;;;;;;5061672;28;20232;-68
2022/12/05 08:08:48;;;;;;;51.83;24.20;;;5.90;99.90;;;;;;5057111;28;20645;-67
2022/12/05 08:11:24;;;;;;;52.70;22.93;;;5.90;99.90;;;;;;5056058;28;20219;-68
2022/12/05 08:13:51;;;;;;;50.13;24.63;;;6.00;99.90;;;;;;5044548;28;20205;-67
2022/12/05 08:16:21;;;;;;;53.97;22.60;;;5.90;99.90;;;;;;5055778;28;20193;-67
2022/12/05 08:18:52;;;;;;;49.23;23.63;;;5.90;99.90;;;;;;5056306;28;20207;-67
2022/12/05 08:21:19;;;;;;;48.90;22.90;;;5.90;99.90;;;;;;5060909;28;20210;-69
2022/12/05 08:23:46;;;;;;;47.00;22.53;;;6.00;99.90;;;;;;5060600;28;20205;-67
2022/12/05 08:26:19;;;;;;;51.13;24.00;;;6.00;99.90;;;;;;5041091;28;20227;-66
2022/12/05 08:28:51;;;;;;;49.63;24.80;;;6.00;99.90;;;;;;5060350;28;20322;-66
2022/12/05 08:31:22;;;;;;;53.33;23.93;;;6.00;99.90;;;;;;5057561;28;20815;-66
2022/12/05 08:33:51;;;;;;;48.27;21.87;;;6.00;99.90;;;;;;5057394;28;20205;-67
2022/12/05 08:36:26;;;;;;;50.07;23.00;;;6.10;99.90;;;;;;5060615;28;20209;-66
2022/12/05 08:39:02;;;;;;;47.40;22.70;;;6.10;99.90;;;;;;5058720;28;20202;-67
2022/12/05 08:41:29;;;;;;;45.67;21.60;;;6.10;99.90;;;;;;5060569;28;20221;-67
2022/12/05 08:43:58;;;;;;;47.77;22.93;;;6.10;99.90;;;;;;5058462;28;20197;-67
2022/12/05 08:46:25;;;;;;;50.80;23.93;;;6.10;99.90;;;;;;5060271;28;20202;-66
2022/12/05 08:48:52;;;;;;;44.03;22.03;;;6.20;99.90;;;;;;5059603;28;20697;-68
2022/12/05 08:51:19;;;;;;;44.83;22.67;;;6.20;99.90;;;;;;5058808;28;20195;-65
2022/12/05 08:53:46;;;;;;;44.30;23.03;;;6.20;99.90;;;;;;5040583;28;20209;-66
2022/12/05 08:56:13;;;;;;;45.40;22.57;;;6.20;99.90;;;;;;5063391;28;20282;-67
2022/12/05 08:58:40;;;;;;;43.10;22.27;;;6.20;99.90;;;;;;5063400;28;20378;-67
2022/12/05 09:01:16;;;;;;;40.83;22.63;;;6.30;99.90;;;;;;5062662;28;20204;-66
2022/12/05 09:03:43;;;;;;;47.30;23.00;;;6.20;99.90;;;;;;5061348;28;20231;-67
2022/12/05 09:06:19;;;;;;;43.13;22.30;;;6.20;99.90;;;;;;5059865;28;20212;-66
2022/12/05 09:08:46;;;;;;;46.43;22.83;;;6.30;99.90;;;;;;5063859;28;20227;-66
2022/12/05 09:11:17;;;;;;;46.57;23.57;;;6.30;99.90;;;;;;5064202;28;20199;-68
2022/12/05 09:13:45;;;;;;;49.37;22.37;;;6.20;99.90;;;;;;5062526;28;20204;-66
2022/12/05 09:16:14;;;;;;;49.67;23.37;;;6.30;99.90;;;;;;5058469;28;20208;-66
2022/12/05 09:18:41;;;;;;;46.97;23.00;;;6.30;99.90;;;;;;5060392;28;20590;-67
2022/12/05 09:21:16;;;;;;;44.87;23.00;;;6.30;99.90;;;;;;5055349;28;20203;-67
2022/12/05 09:23:44;;;;;;;44.17;21.27;;;6.30;99.90;;;;;;5061774;28;20305;-67
2022/12/05 09:26:13;;;;;;;43.43;23.17;;;6.30;99.90;;;;;;5061917;28;20295;-66
2022/12/05 09:28:41;;;;;;;40.20;21.23;;;6.50;99.90;;;;;;5061274;28;20231;-66
2022/12/05 09:31:14;;;;;;;45.03;23.40;;;6.30;99.90;;;;;;5061180;28;20205;-66
2022/12/05 09:33:41;;;;;;;43.43;21.10;;;6.40;99.90;;;;;;5043886;28;20216;-66
2022/12/05 09:36:15;;;;;;;44.57;23.07;;;6.40;99.90;;;;;;5059185;28;20206;-68
2022/12/05 09:38:43;;;;;;;45.47;22.90;;;6.40;99.90;;;;;;5061900;28;20206;-66
2022/12/05 09:42:03;;;;;;;47.73;22.70;;;6.40;99.90;;;;;;5059782;28;20509;-66
2022/12/05 09:44:31;;;;;;;45.27;21.60;;;6.50;99.90;;;;;;5058311;28;20781;-66
2022/12/05 09:47:03;;;;;;;45.50;21.23;;;6.40;99.90;;;;;;5058182;28;20243;-66
2022/12/05 09:49:32;;;;;;;41.10;21.50;;;6.40;99.90;;;;;;5061635;28;20607;-68
2022/12/05 09:52:00;;;;;;;46.37;22.73;;;6.40;99.90;;;;;;5060158;28;20305;-67
2022/12/05 09:54:27;;;;;;;46.73;22.17;;;6.40;99.90;;;;;;5055135;28;20242;-66
2022/12/05 09:56:54;;;;;;;46.10;22.87;;;6.40;99.90;;;;;;5060561;28;20219;-66
2022/12/05 09:59:21;;;;;;;43.20;21.83;;;6.40;99.90;;;;;;5056735;28;20192;-66
2022/12/05 10:01:50;;;;;;;40.17;21.07;;;6.40;99.90;;;;;;5061214;28;20580;-66
2022/12/05 10:04:37;;;;;;;44.27;21.53;;;6.40;99.90;;;;;;5060936;28;20291;-66
2022/12/05 10:07:10;;;;;;;37.90;20.87;;;6.40;99.90;;;;;;5061824;28;20597;-66
2022/12/05 10:09:39;;;;;;;40.70;20.90;;;6.50;99.90;;;;;;5042623;28;20271;-66
2022/12/05 10:12:49;;;;;;;37.97;21.13;;;6.50;99.90;;;;;;5063741;28;20239;-67
2022/12/05 10:15:31;;;;;;;41.47;20.97;;;6.50;99.90;;;;;;5057289;28;20300;-66
2022/12/05 10:18:17;;;;;;;41.03;20.03;;;6.40;99.90;;;;;;5059227;28;20195;-66
2022/12/05 10:20:52;;;;;;;38.97;19.07;;;6.40;99.90;;;;;;5064275;28;20220;-66
2022/12/05 10:23:30;;;;;;;39.03;20.13;;;6.50;99.90;;;;;;5056023;28;20975;-66
2022/12/05 10:26:18;;;;;;;30.93;17.73;;;6.50;99.90;;;;;;5058675;28;20653;-67
2022/12/05 10:29:02;;;;;;;35.53;18.83;;;6.50;99.90;;;;;;5042743;28;20221;-70
2022/12/05 10:31:33;;;;;;;33.10;17.30;;;6.50;99.90;;;;;;5058909;28;20653;-65
2022/12/05 10:34:17;;;;;;;31.70;16.33;;;6.50;99.90;;;;;;5058976;28;20216;-67
2022/12/05 10:37:07;;;;;;;33.47;15.97;;;6.50;99.90;;;;;;5060783;28;20269;-66
2022/12/05 10:39:34;;;;;;;30.73;15.77;;;6.50;99.90;;;;;;5042001;28;20575;-66
2022/12/05 10:42:02;;;;;;;27.33;13.50;;;6.50;99.90;;;;;;5060230;28;20713;-66
2022/12/05 10:44:30;;;;;;;22.13;12.13;;;6.50;99.90;;;;;;5047371;28;20209;-66
2022/12/05 10:46:58;;;;;;;19.87;11.33;;;6.50;99.90;;;;;;5058631;28;20242;-66
2022/12/05 10:49:26;;;;;;;16.73;9.73;;;6.50;99.90;;;;;;5059411;28;20632;-65
2022/12/05 10:51:52;;;;;;;19.90;10.47;;;6.50;99.90;;;;;;5058830;28;20285;-66
2022/12/05 10:54:23;;;;;;;15.13;9.20;;;6.50;99.90;;;;;;5054568;28;20689;-66
2022/12/05 10:56:51;;;;;;;17.27;8.97;;;6.90;99.90;;;;;;5062719;28;20219;-66
2022/12/05 10:59:43;;;;;;;15.00;7.93;;;6.50;99.90;;;;;;5061299;28;20679;-66
2022/12/05 11:02:30;;;;;;;13.53;8.17;;;6.50;99.90;;;;;;5041308;28;20199;-68
2022/12/05 11:04:57;;;;;;;14.87;8.50;;;6.50;99.90;;;;;;5055885;28;20201;-65
2022/12/05 11:07:30;;;;;;;18.03;9.47;;;6.40;99.90;;;;;;5056966;28;20217;-68
2022/12/05 11:09:59;;;;;;;14.10;7.83;;;6.40;99.90;;;;;;5059291;28;20241;-66
2022/12/05 11:12:28;;;;;;;14.13;8.37;;;6.40;99.90;;;;;;5057519;28;20209;-66
2022/12/05 11:14:59;;;;;;;13.70;8.63;;;6.40;99.90;;;;;;5056224;28;20209;-65
2022/12/05 11:17:35;;;;;;;15.10;8.33;;;6.40;99.90;;;;;;5059215;28;20200;-65
2022/12/05 11:20:23;;;;;;;16.00;8.07;;;6.30;99.90;;;;;;5057774;28;20632;-66
2022/12/05 11:22:52;;;;;;;14.20;7.93;;;6.30;99.90;;;;;;5057197;28;20655;-66
2022/12/05 11:25:35;;;;;;;14.40;7.70;;;6.30;99.90;;;;;;5060807;28;20303;-65
2022/12/05 11:28:28;;;;;;;15.57;7.47;;;6.30;99.90;;;;;;5046007;28;20214;-66
2022/12/05 11:31:03;;;;;;;11.97;6.43;;;6.30;99.90;;;;;;5058852;28;20201;-65
2022/12/05 11:33:34;;;;;;;13.87;7.10;;;6.30;99.90;;;;;;5057131;28;20785;-66
2022/12/05 11:36:19;;;;;;;15.13;8.07;;;6.30;99.90;;;;;;5060506;28;20205;-66
2022/12/05 11:38:46;;;;;;;14.40;6.73;;;6.30;99.90;;;;;;5053397;28;20295;-65
2022/12/05 11:41:40;;;;;;;13.83;7.40;;;6.30;99.90;;;;;;5042005;28;20316;-65
2022/12/05 11:44:24;;;;;;;12.30;6.90;;;6.30;99.90;;;;;;5051984;28;20193;-66
2022/12/05 11:47:12;;;;;;;13.60;7.10;;;6.40;99.90;;;;;;5040947;28;20204;-65
2022/12/05 11:49:42;;;;;;;13.00;6.97;;;6.40;99.90;;;;;;5055354;28;20234;-66
2022/12/05 11:52:24;;;;;;;15.07;7.30;;;6.30;99.90;;;;;;5059327;28;20198;-64
2022/12/05 11:55:06;;;;;;;13.63;7.17;;;6.30;99.90;;;;;;5057437;28;20199;-66
2022/12/05 11:57:43;;;;;;;11.53;6.20;;;6.30;99.90;;;;;;5041332;28;20398;-66
2022/12/05 12:00:34;;;;;;;11.93;6.33;;;6.30;99.90;;;;;;5055256;28;20200;-66
2022/12/05 12:03:27;;;;;;;12.83;6.60;;;6.30;99.90;;;;;;5058221;28;20206;-67
2022/12/05 12:06:17;;;;;;;12.00;6.77;;;6.30;99.90;;;;;;5056752;28;20834;-66
2022/12/05 12:09:05;;;;;;;10.97;6.53;;;6.30;99.90;;;;;;5056735;28;20222;-66
2022/12/05 12:11:50;;;;;;;10.53;6.33;;;6.30;99.90;;;;;;5055028;28;20215;-66
2022/12/05 12:14:35;;;;;;;11.63;7.13;;;6.30;99.90;;;;;;5057434;28;20199;-66
2022/12/05 12:17:23;;;;;;;13.43;6.80;;;6.30;99.90;;;;;;5060609;28;20249;-66
2022/12/05 12:20:17;;;;;;;15.47;7.10;;;6.30;99.90;;;;;;5053632;28;21129;-66
2022/12/05 12:23:10;;;;;;;14.00;7.07;;;6.30;99.90;;;;;;5061093;28;20215;-66
2022/12/05 12:25:36;;;;;;;13.83;7.57;;;6.30;99.90;;;;;;5052398;28;20595;-66
2022/12/05 12:28:17;;;;;;;12.20;6.53;;;6.30;99.90;;;;;;5056092;28;20358;-67
2022/12/05 12:31:12;;;;;;;13.10;6.77;;;6.30;99.90;;;;;;5060465;28;20211;-66
2022/12/05 12:33:51;;;;;;;14.13;6.67;;;6.40;99.90;;;;;;5059697;28;20236;-66
2022/12/05 12:36:30;;;;;;;12.50;7.07;;;6.40;99.90;;;;;;5063614;28;20195;-67
2022/12/05 12:39:11;;;;;;;11.77;6.30;;;6.40;99.90;;;;;;5059216;28;20266;-66
2022/12/05 12:41:53;;;;;;;12.20;6.40;;;6.40;99.90;;;;;;5040309;28;20828;-66
2022/12/05 12:44:39;;;;;;;10.33;6.30;;;6.40;99.90;;;;;;5061098;28;20207;-66
2022/12/05 12:47:31;;;;;;;11.37;6.20;;;6.30;99.90;;;;;;5064423;28;20233;-66
2022/12/05 12:50:17;;;;;;;14.73;6.50;;;6.30;99.90;;;;;;5004880;28;20231;-66
2022/12/05 12:52:56;;;;;;;14.10;6.40;;;6.30;99.90;;;;;;5056810;28;20255;-66
2022/12/05 12:55:35;;;;;;;12.50;6.93;;;6.30;99.90;;;;;;5061615;28;20198;-65
2022/12/05 12:58:11;;;;;;;11.60;6.70;;;6.40;99.90;;;;;;5063367;28;20839;-65
2022/12/05 13:00:59;;;;;;;12.13;6.77;;;6.40;99.90;;;;;;5061255;28;20199;-67
2022/12/05 13:03:37;;;;;;;9.67;6.20;;;6.40;99.90;;;;;;5064194;28;20201;-66
2022/12/05 13:06:27;;;;;;;12.03;6.47;;;6.40;99.90;;;;;;5062418;28;20200;-66
2022/12/05 13:09:17;;;;;;;12.33;6.57;;;6.40;99.90;;;;;;5063233;28;20706;-66
2022/12/05 13:11:48;;;;;;;12.43;7.07;;;6.40;99.90;;;;;;5051989;28;20278;-66
2022/12/05 13:14:19;;;;;;;9.93;6.37;;;6.40;99.90;;;;;;5058915;28;20208;-65
2022/12/05 13:16:49;;;;;;;14.17;6.93;;;6.30;99.90;;;;;;5058765;28;20220;-66